sensor_id;sensor_type;location;lat;lon;timestamp;P1;durP1;ratioP1;P2;durP2;ratioP2
19971;SDS011;10147;16.402;102.848;2023-05-07T00:00:49;41.55;;;32.72;;
19971;SDS011;10147;16.402;102.848;2023-05-07T00:03:19;40.05;;;31.70;;
19971;SDS011;10147;16.402;102.848;2023-05-07T00:05:50;40.90;;;30.40;;
19971;SDS011;10147;16.402;102.848;2023-05-07T00:08:21;37.65;;;30.40;;
19971;SDS011;10147;16.402;102.848;2023-05-07T00:10:51;35.45;;;29.30;;
19971;SDS011;10147;16.402;102.848;2023-05-07T00:13:21;40.25;;;30.60;;
19971;SDS011;10147;16.402;102.848;2023-05-07T00:15:51;37.42;;;29.77;;
19971;SDS011;10147;16.402;102.848;2023-05-07T00:18:22;32.60;;;28.98;;
19971;SDS011;10147;16.402;102.848;2023-05-07T00:20:53;36.65;;;32.70;;
19971;SDS011;10147;16.402;102.848;2023-05-07T00:23:22;36.00;;;29.52;;
19971;SDS011;10147;16.402;102.848;2023-05-07T00:25:52;35.88;;;28.98;;
19971;SDS011;10147;16.402;102.848;2023-05-07T00:28:22;33.35;;;28.35;;
19971;SDS011;10147;16.402;102.848;2023-05-07T00:30:52;37.28;;;30.00;;
19971;SDS011;10147;16.402;102.848;2023-05-07T00:33:22;35.70;;;29.38;;
19971;SDS011;10147;16.402;102.848;2023-05-07T00:35:52;36.50;;;31.10;;
19971;SDS011;10147;16.402;102.848;2023-05-07T00:38:25;33.97;;;30.35;;
19971;SDS011;10147;16.402;102.848;2023-05-07T00:40:55;38.75;;;30.85;;
19971;SDS011;10147;16.402;102.848;2023-05-07T00:43:25;36.15;;;31.58;;
19971;SDS011;10147;16.402;102.848;2023-05-07T00:45:56;37.95;;;31.40;;
19971;SDS011;10147;16.402;102.848;2023-05-07T00:48:26;37.60;;;29.80;;
19971;SDS011;10147;16.402;102.848;2023-05-07T00:50:56;37.35;;;30.48;;
19971;SDS011;10147;16.402;102.848;2023-05-07T00:53:26;36.97;;;29.17;;
19971;SDS011;10147;16.402;102.848;2023-05-07T00:55:57;36.60;;;29.33;;
19971;SDS011;10147;16.402;102.848;2023-05-07T00:58:27;33.22;;;29.10;;
19971;SDS011;10147;16.402;102.848;2023-05-07T01:00:57;34.20;;;29.83;;
19971;SDS011;10147;16.402;102.848;2023-05-07T01:03:26;35.00;;;30.15;;
19971;SDS011;10147;16.402;102.848;2023-05-07T01:05:57;33.47;;;29.95;;
19971;SDS011;10147;16.402;102.848;2023-05-07T01:08:30;37.85;;;29.42;;
19971;SDS011;10147;16.402;102.848;2023-05-07T01:11:01;36.35;;;28.52;;
19971;SDS011;10147;16.402;102.848;2023-05-07T01:13:32;32.97;;;29.40;;
19971;SDS011;10147;16.402;102.848;2023-05-07T01:16:04;36.63;;;29.00;;
19971;SDS011;10147;16.402;102.848;2023-05-07T01:18:35;29.85;;;26.75;;
19971;SDS011;10147;16.402;102.848;2023-05-07T01:21:06;32.17;;;28.77;;
19971;SDS011;10147;16.402;102.848;2023-05-07T01:23:40;37.38;;;27.88;;
19971;SDS011;10147;16.402;102.848;2023-05-07T01:26:14;31.35;;;27.50;;
19971;SDS011;10147;16.402;102.848;2023-05-07T01:28:45;29.92;;;26.27;;
19971;SDS011;10147;16.402;102.848;2023-05-07T01:31:15;34.15;;;26.95;;
19971;SDS011;10147;16.402;102.848;2023-05-07T01:33:47;35.00;;;26.90;;
19971;SDS011;10147;16.402;102.848;2023-05-07T01:36:18;28.88;;;25.73;;
19971;SDS011;10147;16.402;102.848;2023-05-07T01:38:51;30.90;;;25.33;;
19971;SDS011;10147;16.402;102.848;2023-05-07T01:41:21;27.02;;;24.17;;
19971;SDS011;10147;16.402;102.848;2023-05-07T01:43:52;27.58;;;24.67;;
19971;SDS011;10147;16.402;102.848;2023-05-07T01:46:24;29.25;;;24.23;;
19971;SDS011;10147;16.402;102.848;2023-05-07T01:48:56;27.85;;;23.50;;
19971;SDS011;10147;16.402;102.848;2023-05-07T01:51:27;28.38;;;23.52;;
19971;SDS011;10147;16.402;102.848;2023-05-07T01:53:57;35.70;;;24.70;;
19971;SDS011;10147;16.402;102.848;2023-05-07T01:56:27;26.95;;;24.27;;
19971;SDS011;10147;16.402;102.848;2023-05-07T01:58:57;28.35;;;22.92;;
19971;SDS011;10147;16.402;102.848;2023-05-07T02:01:28;25.63;;;22.98;;
19971;SDS011;10147;16.402;102.848;2023-05-07T02:03:58;25.30;;;22.33;;
19971;SDS011;10147;16.402;102.848;2023-05-07T02:06:29;26.20;;;23.02;;
19971;SDS011;10147;16.402;102.848;2023-05-07T02:09:04;30.38;;;23.70;;
19971;SDS011;10147;16.402;102.848;2023-05-07T02:11:34;24.13;;;21.73;;
19971;SDS011;10147;16.402;102.848;2023-05-07T02:14:04;25.55;;;22.88;;
19971;SDS011;10147;16.402;102.848;2023-05-07T02:16:34;24.98;;;21.45;;
19971;SDS011;10147;16.402;102.848;2023-05-07T02:19:05;23.08;;;20.63;;
19971;SDS011;10147;16.402;102.848;2023-05-07T02:21:36;31.52;;;21.27;;
19971;SDS011;10147;16.402;102.848;2023-05-07T02:24:06;26.40;;;21.45;;
19971;SDS011;10147;16.402;102.848;2023-05-07T02:26:42;42.67;;;37.10;;
19971;SDS011;10147;16.402;102.848;2023-05-07T02:29:12;25.52;;;22.75;;
19971;SDS011;10147;16.402;102.848;2023-05-07T02:31:42;24.00;;;21.63;;
19971;SDS011;10147;16.402;102.848;2023-05-07T02:34:12;24.85;;;22.23;;
19971;SDS011;10147;16.402;102.848;2023-05-07T02:36:42;25.92;;;21.35;;
19971;SDS011;10147;16.402;102.848;2023-05-07T02:39:19;25.38;;;22.58;;
19971;SDS011;10147;16.402;102.848;2023-05-07T02:41:49;23.40;;;21.10;;
19971;SDS011;10147;16.402;102.848;2023-05-07T02:44:19;31.80;;;22.13;;
19971;SDS011;10147;16.402;102.848;2023-05-07T02:46:50;24.65;;;22.13;;
19971;SDS011;10147;16.402;102.848;2023-05-07T02:49:21;27.17;;;23.13;;
19971;SDS011;10147;16.402;102.848;2023-05-07T02:51:51;24.50;;;21.88;;
19971;SDS011;10147;16.402;102.848;2023-05-07T02:54:23;23.92;;;21.42;;
19971;SDS011;10147;16.402;102.848;2023-05-07T02:56:56;24.23;;;20.98;;
19971;SDS011;10147;16.402;102.848;2023-05-07T02:59:27;23.08;;;20.40;;
19971;SDS011;10147;16.402;102.848;2023-05-07T03:01:57;28.85;;;20.85;;
19971;SDS011;10147;16.402;102.848;2023-05-07T03:04:27;24.90;;;20.23;;
19971;SDS011;10147;16.402;102.848;2023-05-07T03:06:57;28.35;;;21.08;;
19971;SDS011;10147;16.402;102.848;2023-05-07T03:09:27;27.70;;;20.55;;
19971;SDS011;10147;16.402;102.848;2023-05-07T03:11:57;22.67;;;20.48;;
19971;SDS011;10147;16.402;102.848;2023-05-07T03:14:27;30.63;;;27.40;;
19971;SDS011;10147;16.402;102.848;2023-05-07T03:16:58;22.58;;;20.25;;
19971;SDS011;10147;16.402;102.848;2023-05-07T03:19:28;23.70;;;20.88;;
19971;SDS011;10147;16.402;102.848;2023-05-07T03:21:59;24.23;;;21.73;;
19971;SDS011;10147;16.402;102.848;2023-05-07T03:24:29;23.27;;;20.92;;
19971;SDS011;10147;16.402;102.848;2023-05-07T03:26:59;23.65;;;21.13;;
19971;SDS011;10147;16.402;102.848;2023-05-07T03:29:29;24.23;;;20.73;;
19971;SDS011;10147;16.402;102.848;2023-05-07T03:31:59;23.85;;;20.27;;
19971;SDS011;10147;16.402;102.848;2023-05-07T03:34:30;27.42;;;20.02;;
19971;SDS011;10147;16.402;102.848;2023-05-07T03:37:00;23.20;;;20.70;;
19971;SDS011;10147;16.402;102.848;2023-05-07T03:39:30;22.23;;;19.80;;
19971;SDS011;10147;16.402;102.848;2023-05-07T03:42:00;23.80;;;20.23;;
19971;SDS011;10147;16.402;102.848;2023-05-07T03:44:35;21.50;;;19.35;;
19971;SDS011;10147;16.402;102.848;2023-05-07T03:47:05;26.95;;;20.10;;
19971;SDS011;10147;16.402;102.848;2023-05-07T03:49:36;24.48;;;20.65;;
19971;SDS011;10147;16.402;102.848;2023-05-07T03:52:07;25.00;;;20.33;;
19971;SDS011;10147;16.402;102.848;2023-05-07T03:54:39;21.90;;;19.67;;
19971;SDS011;10147;16.402;102.848;2023-05-07T03:57:11;23.60;;;20.75;;
19971;SDS011;10147;16.402;102.848;2023-05-07T03:59:41;26.27;;;23.50;;
19971;SDS011;10147;16.402;102.848;2023-05-07T04:02:11;26.85;;;22.05;;
19971;SDS011;10147;16.402;102.848;2023-05-07T04:04:41;24.15;;;19.73;;
19971;SDS011;10147;16.402;102.848;2023-05-07T04:07:13;26.27;;;19.85;;
19971;SDS011;10147;16.402;102.848;2023-05-07T04:09:48;22.88;;;18.88;;
19971;SDS011;10147;16.402;102.848;2023-05-07T04:12:18;23.95;;;20.05;;
19971;SDS011;10147;16.402;102.848;2023-05-07T04:14:48;24.00;;;19.77;;
19971;SDS011;10147;16.402;102.848;2023-05-07T04:17:18;22.48;;;20.05;;
19971;SDS011;10147;16.402;102.848;2023-05-07T04:19:48;22.17;;;19.10;;
19971;SDS011;10147;16.402;102.848;2023-05-07T04:22:19;28.52;;;19.08;;
19971;SDS011;10147;16.402;102.848;2023-05-07T04:24:49;22.00;;;18.95;;
19971;SDS011;10147;16.402;102.848;2023-05-07T04:27:20;22.77;;;19.27;;
19971;SDS011;10147;16.402;102.848;2023-05-07T04:29:50;24.45;;;20.42;;
19971;SDS011;10147;16.402;102.848;2023-05-07T04:32:20;23.08;;;20.77;;
19971;SDS011;10147;16.402;102.848;2023-05-07T04:34:51;22.65;;;19.33;;
19971;SDS011;10147;16.402;102.848;2023-05-07T04:37:21;23.30;;;18.38;;
19971;SDS011;10147;16.402;102.848;2023-05-07T04:39:52;31.17;;;28.52;;
19971;SDS011;10147;16.402;102.848;2023-05-07T04:42:23;39.42;;;34.95;;
19971;SDS011;10147;16.402;102.848;2023-05-07T04:44:54;46.92;;;34.13;;
19971;SDS011;10147;16.402;102.848;2023-05-07T04:47:28;23.65;;;19.33;;
19971;SDS011;10147;16.402;102.848;2023-05-07T04:49:59;20.25;;;18.35;;
19971;SDS011;10147;16.402;102.848;2023-05-07T04:52:30;32.03;;;18.83;;
19971;SDS011;10147;16.402;102.848;2023-05-07T04:55:00;18.90;;;16.88;;
19971;SDS011;10147;16.402;102.848;2023-05-07T04:57:35;19.13;;;17.23;;
19971;SDS011;10147;16.402;102.848;2023-05-07T05:00:07;20.88;;;17.75;;
19971;SDS011;10147;16.402;102.848;2023-05-07T05:02:39;22.75;;;18.00;;
19971;SDS011;10147;16.402;102.848;2023-05-07T05:05:13;20.92;;;18.85;;
19971;SDS011;10147;16.402;102.848;2023-05-07T05:07:48;21.00;;;18.17;;
19971;SDS011;10147;16.402;102.848;2023-05-07T05:10:21;20.92;;;18.23;;
19971;SDS011;10147;16.402;102.848;2023-05-07T05:12:51;21.23;;;17.92;;
19971;SDS011;10147;16.402;102.848;2023-05-07T05:15:22;19.55;;;17.25;;
19971;SDS011;10147;16.402;102.848;2023-05-07T05:17:53;19.88;;;17.77;;
19971;SDS011;10147;16.402;102.848;2023-05-07T05:20:23;19.88;;;17.83;;
19971;SDS011;10147;16.402;102.848;2023-05-07T05:22:54;21.05;;;18.15;;
19971;SDS011;10147;16.402;102.848;2023-05-07T05:25:24;19.45;;;17.42;;
19971;SDS011;10147;16.402;102.848;2023-05-07T05:27:55;20.75;;;18.75;;
19971;SDS011;10147;16.402;102.848;2023-05-07T05:30:25;21.58;;;18.35;;
19971;SDS011;10147;16.402;102.848;2023-05-07T05:32:55;21.65;;;18.33;;
19971;SDS011;10147;16.402;102.848;2023-05-07T05:35:26;22.67;;;17.90;;
19971;SDS011;10147;16.402;102.848;2023-05-07T05:37:58;21.85;;;18.13;;
19971;SDS011;10147;16.402;102.848;2023-05-07T05:40:28;21.00;;;18.85;;
19971;SDS011;10147;16.402;102.848;2023-05-07T05:42:58;20.67;;;18.20;;
19971;SDS011;10147;16.402;102.848;2023-05-07T05:45:30;33.08;;;19.27;;
19971;SDS011;10147;16.402;102.848;2023-05-07T05:48:00;22.10;;;18.77;;
19971;SDS011;10147;16.402;102.848;2023-05-07T05:50:30;29.58;;;18.65;;
19971;SDS011;10147;16.402;102.848;2023-05-07T05:53:01;19.23;;;17.27;;
19971;SDS011;10147;16.402;102.848;2023-05-07T05:55:32;22.55;;;18.33;;
19971;SDS011;10147;16.402;102.848;2023-05-07T05:58:04;31.33;;;28.35;;
19971;SDS011;10147;16.402;102.848;2023-05-07T06:00:38;22.60;;;20.27;;
19971;SDS011;10147;16.402;102.848;2023-05-07T06:03:09;25.70;;;20.67;;
19971;SDS011;10147;16.402;102.848;2023-05-07T06:05:41;23.25;;;21.08;;
19971;SDS011;10147;16.402;102.848;2023-05-07T06:08:13;22.48;;;20.17;;
19971;SDS011;10147;16.402;102.848;2023-05-07T06:10:43;22.38;;;20.00;;
19971;SDS011;10147;16.402;102.848;2023-05-07T06:13:14;23.13;;;19.95;;
19971;SDS011;10147;16.402;102.848;2023-05-07T06:15:44;22.48;;;19.13;;
19971;SDS011;10147;16.402;102.848;2023-05-07T06:18:14;20.13;;;18.15;;
19971;SDS011;10147;16.402;102.848;2023-05-07T06:20:44;20.20;;;18.17;;
19971;SDS011;10147;16.402;102.848;2023-05-07T06:23:23;26.92;;;18.75;;
19971;SDS011;10147;16.402;102.848;2023-05-07T06:25:53;22.17;;;19.20;;
19971;SDS011;10147;16.402;102.848;2023-05-07T06:28:28;21.15;;;18.92;;
19971;SDS011;10147;16.402;102.848;2023-05-07T06:31:12;20.20;;;18.05;;
19971;SDS011;10147;16.402;102.848;2023-05-07T06:33:53;20.35;;;18.17;;
19971;SDS011;10147;16.402;102.848;2023-05-07T06:36:29;22.65;;;19.95;;
19971;SDS011;10147;16.402;102.848;2023-05-07T06:39:07;24.88;;;18.35;;
19971;SDS011;10147;16.402;102.848;2023-05-07T06:41:38;24.10;;;17.75;;
19971;SDS011;10147;16.402;102.848;2023-05-07T06:44:16;20.85;;;18.65;;
19971;SDS011;10147;16.402;102.848;2023-05-07T06:46:57;20.67;;;18.63;;
19971;SDS011;10147;16.402;102.848;2023-05-07T06:49:27;21.02;;;18.80;;
19971;SDS011;10147;16.402;102.848;2023-05-07T06:51:57;20.55;;;18.45;;
19971;SDS011;10147;16.402;102.848;2023-05-07T06:54:28;21.23;;;18.23;;
19971;SDS011;10147;16.402;102.848;2023-05-07T06:56:58;23.02;;;18.63;;
19971;SDS011;10147;16.402;102.848;2023-05-07T06:59:30;24.65;;;18.77;;
19971;SDS011;10147;16.402;102.848;2023-05-07T07:02:00;21.13;;;18.92;;
19971;SDS011;10147;16.402;102.848;2023-05-07T07:04:30;21.38;;;19.08;;
19971;SDS011;10147;16.402;102.848;2023-05-07T07:07:05;23.20;;;18.27;;
19971;SDS011;10147;16.402;102.848;2023-05-07T07:09:35;20.77;;;17.88;;
19971;SDS011;10147;16.402;102.848;2023-05-07T07:12:09;23.20;;;17.63;;
19971;SDS011;10147;16.402;102.848;2023-05-07T07:14:42;20.60;;;18.05;;
19971;SDS011;10147;16.402;102.848;2023-05-07T07:17:13;20.20;;;18.10;;
19971;SDS011;10147;16.402;102.848;2023-05-07T07:19:43;24.08;;;18.02;;
19971;SDS011;10147;16.402;102.848;2023-05-07T07:22:13;21.15;;;18.75;;
19971;SDS011;10147;16.402;102.848;2023-05-07T07:24:43;21.67;;;18.60;;
19971;SDS011;10147;16.402;102.848;2023-05-07T07:27:17;20.98;;;18.15;;
19971;SDS011;10147;16.402;102.848;2023-05-07T07:29:51;19.33;;;17.42;;
19971;SDS011;10147;16.402;102.848;2023-05-07T07:32:25;20.65;;;17.67;;
19971;SDS011;10147;16.402;102.848;2023-05-07T07:34:56;19.98;;;18.00;;
19971;SDS011;10147;16.402;102.848;2023-05-07T07:37:26;19.45;;;17.42;;
19971;SDS011;10147;16.402;102.848;2023-05-07T07:40:00;20.33;;;18.13;;
19971;SDS011;10147;16.402;102.848;2023-05-07T07:42:31;20.35;;;17.38;;
19971;SDS011;10147;16.402;102.848;2023-05-07T07:45:02;22.58;;;17.67;;
19971;SDS011;10147;16.402;102.848;2023-05-07T07:47:35;20.58;;;18.38;;
19971;SDS011;10147;16.402;102.848;2023-05-07T07:50:06;21.05;;;18.80;;
19971;SDS011;10147;16.402;102.848;2023-05-07T07:52:41;21.55;;;18.75;;
19971;SDS011;10147;16.402;102.848;2023-05-07T07:55:14;25.42;;;19.85;;
19971;SDS011;10147;16.402;102.848;2023-05-07T07:57:52;20.20;;;17.85;;
19971;SDS011;10147;16.402;102.848;2023-05-07T08:00:23;20.65;;;18.45;;
19971;SDS011;10147;16.402;102.848;2023-05-07T08:02:55;20.63;;;17.58;;
19971;SDS011;10147;16.402;102.848;2023-05-07T08:05:31;19.60;;;17.63;;
19971;SDS011;10147;16.402;102.848;2023-05-07T08:08:03;20.50;;;18.05;;
19971;SDS011;10147;16.402;102.848;2023-05-07T08:10:36;19.75;;;17.75;;
19971;SDS011;10147;16.402;102.848;2023-05-07T08:13:15;19.55;;;17.52;;
19971;SDS011;10147;16.402;102.848;2023-05-07T08:15:49;20.85;;;17.98;;
19971;SDS011;10147;16.402;102.848;2023-05-07T08:18:19;18.52;;;16.63;;
19971;SDS011;10147;16.402;102.848;2023-05-07T08:20:50;18.88;;;16.88;;
19971;SDS011;10147;16.402;102.848;2023-05-07T08:23:22;21.63;;;17.15;;
19971;SDS011;10147;16.402;102.848;2023-05-07T08:25:53;21.95;;;18.05;;
19971;SDS011;10147;16.402;102.848;2023-05-07T08:28:23;20.13;;;17.73;;
19971;SDS011;10147;16.402;102.848;2023-05-07T08:30:53;20.10;;;17.02;;
19971;SDS011;10147;16.402;102.848;2023-05-07T08:33:26;22.50;;;17.00;;
19971;SDS011;10147;16.402;102.848;2023-05-07T08:35:56;18.23;;;16.25;;
19971;SDS011;10147;16.402;102.848;2023-05-07T08:38:27;18.67;;;16.63;;
19971;SDS011;10147;16.402;102.848;2023-05-07T08:40:57;18.35;;;16.58;;
19971;SDS011;10147;16.402;102.848;2023-05-07T08:43:29;18.85;;;17.02;;
19971;SDS011;10147;16.402;102.848;2023-05-07T08:46:02;25.92;;;16.58;;
19971;SDS011;10147;16.402;102.848;2023-05-07T08:48:39;21.48;;;17.63;;
19971;SDS011;10147;16.402;102.848;2023-05-07T08:51:14;19.42;;;17.40;;
19971;SDS011;10147;16.402;102.848;2023-05-07T08:53:47;20.50;;;17.98;;
19971;SDS011;10147;16.402;102.848;2023-05-07T08:56:23;19.33;;;17.20;;
19971;SDS011;10147;16.402;102.848;2023-05-07T08:58:54;19.65;;;17.52;;
19971;SDS011;10147;16.402;102.848;2023-05-07T09:01:28;17.75;;;15.88;;
19971;SDS011;10147;16.402;102.848;2023-05-07T09:03:59;19.17;;;17.27;;
19971;SDS011;10147;16.402;102.848;2023-05-07T09:06:33;20.73;;;17.33;;
19971;SDS011;10147;16.402;102.848;2023-05-07T09:09:04;18.33;;;16.48;;
19971;SDS011;10147;16.402;102.848;2023-05-07T09:11:34;20.58;;;16.73;;
19971;SDS011;10147;16.402;102.848;2023-05-07T09:14:04;18.08;;;16.35;;
19971;SDS011;10147;16.402;102.848;2023-05-07T09:16:39;24.33;;;16.73;;
19971;SDS011;10147;16.402;102.848;2023-05-07T09:19:10;18.02;;;16.23;;
19971;SDS011;10147;16.402;102.848;2023-05-07T09:21:43;18.27;;;16.42;;
19971;SDS011;10147;16.402;102.848;2023-05-07T09:24:15;19.38;;;15.90;;
19971;SDS011;10147;16.402;102.848;2023-05-07T09:26:45;22.88;;;16.23;;
19971;SDS011;10147;16.402;102.848;2023-05-07T09:29:16;18.88;;;17.20;;
19971;SDS011;10147;16.402;102.848;2023-05-07T09:31:46;20.45;;;17.33;;
19971;SDS011;10147;16.402;102.848;2023-05-07T09:34:17;20.88;;;17.15;;
19971;SDS011;10147;16.402;102.848;2023-05-07T09:36:48;21.08;;;17.38;;
19971;SDS011;10147;16.402;102.848;2023-05-07T09:39:18;19.05;;;17.10;;
19971;SDS011;10147;16.402;102.848;2023-05-07T09:41:49;19.83;;;16.40;;
19971;SDS011;10147;16.402;102.848;2023-05-07T09:44:29;18.92;;;17.10;;
19971;SDS011;10147;16.402;102.848;2023-05-07T09:47:01;19.95;;;17.95;;
19971;SDS011;10147;16.402;102.848;2023-05-07T09:49:40;20.10;;;17.95;;
19971;SDS011;10147;16.402;102.848;2023-05-07T09:52:18;20.10;;;17.92;;
19971;SDS011;10147;16.402;102.848;2023-05-07T09:54:52;19.38;;;17.48;;
19971;SDS011;10147;16.402;102.848;2023-05-07T09:57:26;20.45;;;18.35;;
19971;SDS011;10147;16.402;102.848;2023-05-07T10:00:02;24.25;;;17.25;;
19971;SDS011;10147;16.402;102.848;2023-05-07T10:02:48;18.48;;;16.58;;
19971;SDS011;10147;16.402;102.848;2023-05-07T10:05:29;22.15;;;17.35;;
19971;SDS011;10147;16.402;102.848;2023-05-07T10:08:01;22.73;;;16.92;;
19971;SDS011;10147;16.402;102.848;2023-05-07T10:10:35;18.80;;;16.73;;
19971;SDS011;10147;16.402;102.848;2023-05-07T10:13:09;22.33;;;18.05;;
19971;SDS011;10147;16.402;102.848;2023-05-07T10:15:46;21.48;;;16.92;;
19971;SDS011;10147;16.402;102.848;2023-05-07T10:18:19;18.25;;;16.55;;
19971;SDS011;10147;16.402;102.848;2023-05-07T10:21:08;20.88;;;17.65;;
19971;SDS011;10147;16.402;102.848;2023-05-07T10:23:50;21.33;;;17.33;;
19971;SDS011;10147;16.402;102.848;2023-05-07T10:26:28;20.33;;;16.67;;
19971;SDS011;10147;16.402;102.848;2023-05-07T10:29:02;21.08;;;17.55;;
19971;SDS011;10147;16.402;102.848;2023-05-07T10:34:39;23.65;;;18.73;;
19971;SDS011;10147;16.402;102.848;2023-05-07T10:37:12;19.48;;;17.42;;
19971;SDS011;10147;16.402;102.848;2023-05-07T10:39:43;20.17;;;18.27;;
19971;SDS011;10147;16.402;102.848;2023-05-07T10:42:14;19.38;;;17.50;;
19971;SDS011;10147;16.402;102.848;2023-05-07T10:44:50;23.10;;;17.95;;
19971;SDS011;10147;16.402;102.848;2023-05-07T10:47:24;21.48;;;19.23;;
19971;SDS011;10147;16.402;102.848;2023-05-07T11:02:11;22.02;;;19.30;;
19971;SDS011;10147;16.402;102.848;2023-05-07T11:08:11;25.05;;;19.38;;
19971;SDS011;10147;16.402;102.848;2023-05-07T11:11:01;22.38;;;20.08;;
19971;SDS011;10147;16.402;102.848;2023-05-07T11:13:47;21.63;;;19.55;;
19971;SDS011;10147;16.402;102.848;2023-05-07T11:16:38;24.42;;;19.65;;
19971;SDS011;10147;16.402;102.848;2023-05-07T11:22:42;27.35;;;24.67;;
19971;SDS011;10147;16.402;102.848;2023-05-07T11:25:18;25.25;;;20.73;;
19971;SDS011;10147;16.402;102.848;2023-05-07T11:27:55;24.77;;;20.80;;
19971;SDS011;10147;16.402;102.848;2023-05-07T11:30:26;24.67;;;20.83;;
19971;SDS011;10147;16.402;102.848;2023-05-07T11:32:58;27.55;;;21.88;;
19971;SDS011;10147;16.402;102.848;2023-05-07T11:35:29;29.60;;;21.75;;
19971;SDS011;10147;16.402;102.848;2023-05-07T11:38:05;33.90;;;21.83;;
19971;SDS011;10147;16.402;102.848;2023-05-07T11:40:47;42.28;;;21.90;;
19971;SDS011;10147;16.402;102.848;2023-05-07T11:43:19;29.83;;;20.02;;
19971;SDS011;10147;16.402;102.848;2023-05-07T11:45:50;36.80;;;19.65;;
19971;SDS011;10147;16.402;102.848;2023-05-07T11:48:20;29.65;;;20.33;;
19971;SDS011;10147;16.402;102.848;2023-05-07T11:50:52;31.65;;;19.90;;
19971;SDS011;10147;16.402;102.848;2023-05-07T11:53:27;28.42;;;19.67;;
19971;SDS011;10147;16.402;102.848;2023-05-07T11:56:07;33.92;;;19.58;;
19971;SDS011;10147;16.402;102.848;2023-05-07T11:58:40;27.67;;;19.30;;
19971;SDS011;10147;16.402;102.848;2023-05-07T12:01:12;30.65;;;19.98;;
19971;SDS011;10147;16.402;102.848;2023-05-07T12:03:43;30.20;;;19.42;;
19971;SDS011;10147;16.402;102.848;2023-05-07T12:06:15;29.13;;;18.92;;
19971;SDS011;10147;16.402;102.848;2023-05-07T12:08:46;36.38;;;20.65;;
19971;SDS011;10147;16.402;102.848;2023-05-07T12:11:24;27.17;;;20.38;;
19971;SDS011;10147;16.402;102.848;2023-05-07T12:13:54;22.35;;;19.85;;
19971;SDS011;10147;16.402;102.848;2023-05-07T12:16:26;25.63;;;19.30;;
19971;SDS011;10147;16.402;102.848;2023-05-07T12:18:56;30.92;;;20.02;;
19971;SDS011;10147;16.402;102.848;2023-05-07T12:21:27;30.08;;;21.15;;
19971;SDS011;10147;16.402;102.848;2023-05-07T12:24:01;25.40;;;21.27;;
19971;SDS011;10147;16.402;102.848;2023-05-07T12:26:31;22.90;;;19.92;;
19971;SDS011;10147;16.402;102.848;2023-05-07T12:29:06;28.90;;;21.88;;
19971;SDS011;10147;16.402;102.848;2023-05-07T12:31:36;23.05;;;20.77;;
19971;SDS011;10147;16.402;102.848;2023-05-07T12:34:11;24.02;;;21.42;;
19971;SDS011;10147;16.402;102.848;2023-05-07T12:36:40;25.33;;;21.63;;
19971;SDS011;10147;16.402;102.848;2023-05-07T12:39:13;36.45;;;23.83;;
19971;SDS011;10147;16.402;102.848;2023-05-07T12:41:56;23.20;;;20.65;;
19971;SDS011;10147;16.402;102.848;2023-05-07T12:44:32;27.63;;;20.65;;
19971;SDS011;10147;16.402;102.848;2023-05-07T12:47:03;22.33;;;19.90;;
19971;SDS011;10147;16.402;102.848;2023-05-07T12:49:34;31.70;;;21.13;;
19971;SDS011;10147;16.402;102.848;2023-05-07T12:52:07;28.08;;;21.75;;
19971;SDS011;10147;16.402;102.848;2023-05-07T12:54:39;24.67;;;22.02;;
19971;SDS011;10147;16.402;102.848;2023-05-07T12:57:09;23.75;;;21.23;;
19971;SDS011;10147;16.402;102.848;2023-05-07T12:59:40;26.83;;;22.55;;
19971;SDS011;10147;16.402;102.848;2023-05-07T13:02:10;25.00;;;22.48;;
19971;SDS011;10147;16.402;102.848;2023-05-07T13:04:41;26.38;;;23.27;;
19971;SDS011;10147;16.402;102.848;2023-05-07T13:07:11;32.33;;;24.80;;
19971;SDS011;10147;16.402;102.848;2023-05-07T13:09:40;34.63;;;25.63;;
19971;SDS011;10147;16.402;102.848;2023-05-07T13:12:10;29.70;;;25.25;;
19971;SDS011;10147;16.402;102.848;2023-05-07T13:14:40;29.52;;;24.45;;
19971;SDS011;10147;16.402;102.848;2023-05-07T13:17:10;32.35;;;25.45;;
19971;SDS011;10147;16.402;102.848;2023-05-07T13:19:40;41.25;;;26.73;;
19971;SDS011;10147;16.402;102.848;2023-05-07T13:22:09;36.53;;;26.65;;
19971;SDS011;10147;16.402;102.848;2023-05-07T13:24:39;31.95;;;24.02;;
19971;SDS011;10147;16.402;102.848;2023-05-07T13:27:11;27.52;;;21.27;;
19971;SDS011;10147;16.402;102.848;2023-05-07T13:29:43;34.08;;;21.73;;
19971;SDS011;10147;16.402;102.848;2023-05-07T13:32:12;24.38;;;21.20;;
19971;SDS011;10147;16.402;102.848;2023-05-07T13:34:42;25.55;;;21.45;;
19971;SDS011;10147;16.402;102.848;2023-05-07T13:37:12;27.90;;;21.27;;
19971;SDS011;10147;16.402;102.848;2023-05-07T13:39:42;26.13;;;20.20;;
19971;SDS011;10147;16.402;102.848;2023-05-07T13:42:12;26.02;;;22.00;;
19971;SDS011;10147;16.402;102.848;2023-05-07T13:44:43;24.15;;;20.50;;
19971;SDS011;10147;16.402;102.848;2023-05-07T13:47:12;23.55;;;20.40;;
19971;SDS011;10147;16.402;102.848;2023-05-07T13:49:45;24.65;;;21.95;;
19971;SDS011;10147;16.402;102.848;2023-05-07T13:52:18;24.73;;;22.10;;
19971;SDS011;10147;16.402;102.848;2023-05-07T13:54:49;29.50;;;21.85;;
19971;SDS011;10147;16.402;102.848;2023-05-07T13:57:20;29.77;;;23.42;;
19971;SDS011;10147;16.402;102.848;2023-05-07T13:59:50;30.80;;;23.33;;
19971;SDS011;10147;16.402;102.848;2023-05-07T14:02:20;31.80;;;23.70;;
19971;SDS011;10147;16.402;102.848;2023-05-07T14:04:50;25.52;;;22.10;;
19971;SDS011;10147;16.402;102.848;2023-05-07T14:07:20;25.45;;;21.92;;
19971;SDS011;10147;16.402;102.848;2023-05-07T14:09:49;25.73;;;20.65;;
19971;SDS011;10147;16.402;102.848;2023-05-07T14:12:19;26.95;;;21.17;;
19971;SDS011;10147;16.402;102.848;2023-05-07T14:14:52;29.00;;;20.60;;
19971;SDS011;10147;16.402;102.848;2023-05-07T14:17:22;24.75;;;21.30;;
19971;SDS011;10147;16.402;102.848;2023-05-07T14:19:54;26.63;;;22.67;;
19971;SDS011;10147;16.402;102.848;2023-05-07T14:22:23;24.95;;;22.55;;
19971;SDS011;10147;16.402;102.848;2023-05-07T14:24:53;27.00;;;21.85;;
19971;SDS011;10147;16.402;102.848;2023-05-07T14:27:33;23.65;;;21.15;;
19971;SDS011;10147;16.402;102.848;2023-05-07T14:30:04;23.48;;;20.95;;
19971;SDS011;10147;16.402;102.848;2023-05-07T14:32:34;25.00;;;22.33;;
19971;SDS011;10147;16.402;102.848;2023-05-07T14:35:04;23.77;;;21.33;;
19971;SDS011;10147;16.402;102.848;2023-05-07T14:37:34;29.05;;;22.02;;
19971;SDS011;10147;16.402;102.848;2023-05-07T14:40:05;32.97;;;29.83;;
19971;SDS011;10147;16.402;102.848;2023-05-07T14:42:36;25.80;;;23.27;;
19971;SDS011;10147;16.402;102.848;2023-05-07T14:45:09;24.65;;;21.67;;